createdAt,value
2023-08-15T00:00:11.343Z,38.52
2023-08-15T00:01:06.469Z,38.28
2023-08-15T00:02:02.310Z,38.28
2023-08-15T00:02:57.632Z,38.81
2023-08-15T00:03:53.493Z,38.81
2023-08-15T00:04:48.406Z,38.99
2023-08-15T00:05:43.636Z,39.17
2023-08-15T00:06:39.542Z,39.25
2023-08-15T00:07:34.636Z,39.58
2023-08-15T00:08:29.906Z,40.15
2023-08-15T00:09:26.371Z,39.81
2023-08-15T00:10:21.421Z,39.70
2023-08-15T00:11:17.512Z,39.85
2023-08-15T00:12:12.522Z,40.47
2023-08-15T00:13:07.883Z,40.94
2023-08-15T00:14:03.590Z,41.10
2023-08-15T00:14:58.750Z,41.18
2023-08-15T00:15:54.496Z,41.18
2023-08-15T00:16:49.885Z,41.51
2023-08-15T00:17:44.963Z,41.80
2023-08-15T00:18:40.630Z,41.55
2023-08-15T00:19:35.794Z,41.68
2023-08-15T00:20:31.006Z,41.68
2023-08-15T00:21:27.373Z,41.51
2023-08-15T00:22:22.351Z,41.64
2023-08-15T00:23:18.095Z,41.31
2023-08-15T00:24:13.270Z,41.35
2023-08-15T00:25:08.361Z,41.22
2023-08-15T00:26:04.141Z,40.66
2023-08-15T00:26:59.227Z,40.58
2023-08-15T00:27:54.979Z,40.51
2023-08-15T00:28:50.133Z,40.23
2023-08-15T00:29:45.385Z,40.04
2023-08-15T00:30:41.133Z,39.58
2023-08-15T00:31:36.355Z,39.51
2023-08-15T00:32:31.547Z,39.25
2023-08-15T00:33:27.835Z,39.06
2023-08-15T00:34:23.065Z,38.78
2023-08-15T00:35:18.813Z,38.52
2023-08-15T00:36:14.185Z,38.38
2023-08-15T00:37:09.243Z,38.24
2023-08-15T00:38:05.015Z,38.31
2023-08-15T00:39:00.223Z,38.03
2023-08-15T00:39:56.080Z,38.03
2023-08-15T00:40:51.176Z,37.93
2023-08-15T00:41:46.663Z,37.66
2023-08-15T00:42:41.729Z,37.86
2023-08-15T00:43:36.858Z,38.07
2023-08-15T00:44:33.294Z,38.24
2023-08-15T00:45:28.418Z,38.74
2023-08-15T00:46:24.416Z,39.51
2023-08-15T00:47:19.612Z,40.15
2023-08-15T00:48:14.903Z,40.58
2023-08-15T00:49:10.492Z,40.94
2023-08-15T00:50:05.734Z,41.59
2023-08-15T00:51:01.483Z,41.93
2023-08-15T00:51:56.665Z,42.18
2023-08-15T00:52:51.904Z,42.27
2023-08-15T00:53:47.651Z,42.14
2023-08-15T00:54:42.847Z,42.27
2023-08-15T00:55:38.034Z,42.35
2023-08-15T00:56:34.385Z,41.93
2023-08-15T00:57:29.589Z,41.84
2023-08-15T00:58:25.335Z,41.68
2023-08-15T00:59:20.541Z,41.43
2023-08-15T01:00:15.736Z,41.35
2023-08-15T01:01:11.078Z,41.43
2023-08-15T01:02:06.044Z,41.22
2023-08-15T01:03:01.290Z,41.35
2023-08-15T01:03:56.487Z,41.26
2023-08-15T01:04:52.131Z,41.43
2023-08-15T01:05:47.333Z,41.39
2023-08-15T01:06:42.720Z,41.97
2023-08-15T01:07:38.325Z,42.14
2023-08-15T01:08:33.639Z,42.22
2023-08-15T01:09:28.705Z,42.88
2023-08-15T01:10:23.893Z,43.10
2023-08-15T01:11:19.111Z,42.88
2023-08-15T01:12:14.062Z,42.79
2023-08-15T01:13:09.089Z,42.53
2023-08-15T01:14:04.184Z,42.66
2023-08-15T01:14:59.218Z,43.41
2023-08-15T01:15:54.283Z,43.87
2023-08-15T01:16:49.521Z,44.28
2023-08-15T01:17:44.497Z,44.71
2023-08-15T01:18:39.406Z,44.43
2023-08-15T01:19:34.479Z,44.43
2023-08-15T01:20:29.627Z,43.50
2023-08-15T01:21:24.901Z,43.41
2023-08-15T01:22:19.665Z,42.88
2023-08-15T01:23:14.700Z,42.83
2023-08-15T01:24:09.757Z,42.83
2023-08-15T01:25:04.976Z,42.61
2023-08-15T01:26:00.024Z,42.70
2023-08-15T01:26:55.242Z,42.40
2023-08-15T01:27:50.534Z,42.83
2023-08-15T01:28:45.629Z,43.05
2023-08-15T01:29:40.773Z,42.61
2023-08-15T01:30:35.849Z,42.27
2023-08-15T01:31:30.944Z,42.18
2023-08-15T01:32:26.095Z,42.44
2023-08-15T01:33:24.728Z,42.96
2023-08-15T01:34:19.801Z,42.96
2023-08-15T01:35:14.964Z,43.14
2023-08-15T01:36:10.170Z,42.79
2023-08-15T01:37:05.517Z,42.88
2023-08-15T01:38:00.569Z,43.19
2023-08-15T01:38:55.769Z,43.55
2023-08-15T01:39:50.954Z,43.05
2023-08-15T01:40:46.001Z,42.48
2023-08-15T01:41:41.232Z,41.93
2023-08-15T01:42:36.364Z,41.76
2023-08-15T01:43:31.720Z,41.93
2023-08-15T01:44:26.793Z,41.93
2023-08-15T01:45:21.967Z,42.22
2023-08-15T01:46:17.239Z,42.57
2023-08-15T01:47:12.646Z,42.44
2023-08-15T01:48:07.561Z,42.48
2023-08-15T01:49:02.637Z,42.27
2023-08-15T01:49:57.692Z,42.18
2023-08-15T01:50:52.754Z,42.35
2023-08-15T01:51:48.127Z,42.35
2023-08-15T01:52:42.954Z,42.31
2023-08-15T01:53:38.024Z,41.76
2023-08-15T01:54:33.235Z,41.59
2023-08-15T01:55:28.297Z,41.22
2023-08-15T01:56:23.461Z,40.86
2023-08-15T01:57:18.820Z,40.47
2023-08-15T01:58:13.655Z,40.82
2023-08-15T01:59:08.676Z,40.94
2023-08-15T02:00:03.761Z,40.94
2023-08-15T02:00:58.786Z,41.84
2023-08-15T02:01:53.834Z,42.22
2023-08-15T02:02:49.032Z,42.74
2023-08-15T02:03:43.915Z,42.79
2023-08-15T02:04:38.914Z,42.83
2023-08-15T02:05:36.091Z,42.70
2023-08-15T02:06:29.121Z,42.48
2023-08-15T02:07:24.299Z,42.35
2023-08-15T02:08:19.496Z,42.66
2023-08-15T02:09:14.731Z,42.70
2023-08-15T02:10:10.023Z,42.70
2023-08-15T02:11:05.173Z,42.35
2023-08-15T02:12:00.181Z,42.18
2023-08-15T02:12:55.315Z,41.97
2023-08-15T02:13:51.175Z,41.51
2023-08-15T02:14:46.410Z,41.84
2023-08-15T02:15:42.201Z,42.10
2023-08-15T02:16:37.416Z,42.35
2023-08-15T02:17:32.781Z,42.53
2023-08-15T02:18:28.582Z,43.05
2023-08-15T02:19:23.616Z,43.59
2023-08-15T02:20:18.828Z,43.91
2023-08-15T02:21:14.994Z,44.01
2023-08-15T02:22:10.220Z,44.47
2023-08-15T02:23:05.972Z,44.57
2023-08-15T02:24:01.148Z,44.86
2023-08-15T02:24:56.212Z,44.81
2023-08-15T02:25:52.097Z,45.05
2023-08-15T02:26:47.326Z,44.90
2023-08-15T02:27:43.071Z,44.95
2023-08-15T02:28:38.270Z,44.95
2023-08-15T02:29:33.479Z,44.81
2023-08-15T02:30:29.402Z,44.43
2023-08-15T02:31:24.522Z,44.62
2023-08-15T02:32:19.717Z,44.38
2023-08-15T02:33:16.156Z,44.14
2023-08-15T02:34:11.269Z,43.73
2023-08-15T02:35:06.978Z,43.46
2023-08-15T02:36:02.178Z,43.32
2023-08-15T02:36:57.375Z,43.19
2023-08-15T02:37:53.162Z,42.83
2023-08-15T02:38:48.514Z,42.35
2023-08-15T02:39:44.266Z,42.18
2023-08-15T02:40:39.314Z,41.80
2023-08-15T02:41:34.677Z,41.18
2023-08-15T02:42:30.435Z,40.39
2023-08-15T02:43:25.679Z,40.15
2023-08-15T02:44:20.857Z,39.85
2023-08-15T02:45:17.165Z,39.58
2023-08-15T02:46:12.384Z,39.62
2023-08-15T02:47:08.164Z,39.55
2023-08-15T02:48:03.398Z,39.66
2023-08-15T02:48:58.651Z,39.66
2023-08-15T02:49:54.377Z,39.58
2023-08-15T02:50:49.611Z,39.85
2023-08-15T02:51:45.353Z,39.81
2023-08-15T02:52:40.542Z,39.89
2023-08-15T02:53:36.156Z,40.15
2023-08-15T02:54:31.533Z,40.23
2023-08-15T02:55:26.713Z,40.35
2023-08-15T02:56:21.946Z,40.27
2023-08-15T02:57:18.170Z,40.15
2023-08-15T02:58:13.411Z,40.39
2023-08-15T02:59:09.168Z,40.15
2023-08-15T03:00:04.388Z,39.62
2023-08-15T03:00:59.433Z,39.40
2023-08-15T03:01:55.360Z,39.03
2023-08-15T03:02:50.799Z,39.51
2023-08-15T03:03:46.391Z,39.66
2023-08-15T03:04:41.544Z,39.47
2023-08-15T03:05:36.768Z,40.35
2023-08-15T03:06:32.541Z,40.43
2023-08-15T03:07:27.782Z,41.22
2023-08-15T03:08:22.933Z,41.39
2023-08-15T03:09:19.299Z,41.51
2023-08-15T03:10:14.655Z,41.72
2023-08-15T03:11:10.415Z,42.01
2023-08-15T03:12:05.586Z,42.14
2023-08-15T03:13:00.861Z,42.35
2023-08-15T03:13:56.005Z,42.61
2023-08-15T03:14:51.355Z,42.92
2023-08-15T03:15:47.084Z,42.83
2023-08-15T03:16:42.394Z,42.70
2023-08-15T03:17:37.568Z,42.74
2023-08-15T03:18:34.024Z,42.66
2023-08-15T03:19:29.060Z,42.35
2023-08-15T03:20:24.962Z,42.35
2023-08-15T03:21:20.123Z,42.74
2023-08-15T03:22:15.338Z,42.57
2023-08-15T03:23:11.112Z,42.61
2023-08-15T03:24:06.320Z,42.44
2023-08-15T03:25:02.176Z,43.14
2023-08-15T03:25:57.235Z,43.41
2023-08-15T03:26:52.571Z,43.73
2023-08-15T03:27:48.409Z,43.46
2023-08-15T03:28:43.463Z,42.88
2023-08-15T03:29:38.773Z,43.19
2023-08-15T03:30:33.820Z,43.19
2023-08-15T03:31:29.042Z,43.32
2023-08-15T03:32:23.998Z,42.53
2023-08-15T03:33:19.395Z,41.55
2023-08-15T03:34:17.944Z,41.43
2023-08-15T03:35:13.032Z,41.64
2023-08-15T03:36:08.248Z,42.10
2023-08-15T03:37:03.439Z,42.10
2023-08-15T03:37:58.477Z,42.10
2023-08-15T03:38:53.544Z,41.80
2023-08-15T03:39:48.476Z,42.18
2023-08-15T03:40:43.535Z,42.27
2023-08-15T03:41:38.622Z,42.01
2023-08-15T03:42:33.688Z,42.18
2023-08-15T03:43:28.877Z,42.40
2023-08-15T03:44:23.982Z,42.61
2023-08-15T03:45:19.045Z,42.06
2023-08-15T03:46:14.209Z,42.06
2023-08-15T03:47:09.145Z,42.01
2023-08-15T03:48:04.220Z,42.18
2023-08-15T03:48:59.277Z,41.72
2023-08-15T03:49:54.369Z,41.84
2023-08-15T03:50:49.308Z,41.76
2023-08-15T03:51:47.456Z,41.51
2023-08-15T03:52:39.375Z,41.39
2023-08-15T03:53:34.522Z,41.43
2023-08-15T03:55:54.789Z,35.97
2023-08-15T03:56:49.845Z,35.81
2023-08-15T03:57:45.064Z,37.09
2023-08-15T03:58:40.294Z,38.03
2023-08-15T03:59:35.664Z,38.56
2023-08-15T04:00:30.720Z,39.25
2023-08-15T04:01:26.007Z,39.66
2023-08-15T04:02:21.120Z,40.27
2023-08-15T04:03:16.335Z,40.58
2023-08-15T04:04:11.808Z,40.78
2023-08-15T04:05:06.786Z,41.02
2023-08-15T04:06:02.123Z,41.26
2023-08-15T04:06:57.268Z,41.47
2023-08-15T04:07:52.461Z,41.64
2023-08-15T04:08:47.728Z,41.72
2023-08-15T04:09:42.998Z,41.80
2023-08-15T04:10:38.279Z,42.10
2023-08-15T04:11:33.571Z,42.27
2023-08-15T04:12:28.862Z,42.40
2023-08-15T04:13:24.123Z,42.01
2023-08-15T04:14:19.558Z,41.47
2023-08-15T04:15:14.720Z,41.43
2023-08-15T04:16:10.269Z,40.98
2023-08-15T04:17:05.337Z,40.70
2023-08-15T04:18:00.708Z,40.54
2023-08-15T04:18:56.011Z,40.58
2023-08-15T04:19:51.375Z,40.82
2023-08-15T04:20:46.723Z,40.62
2023-08-15T04:21:42.052Z,40.51
2023-08-15T04:22:37.376Z,40.39
2023-08-15T04:23:32.717Z,40.54
2023-08-15T04:24:28.090Z,40.66
2023-08-15T04:25:23.462Z,40.74
2023-08-15T04:26:18.647Z,41.18
2023-08-15T04:27:13.870Z,41.10
2023-08-15T04:28:09.115Z,41.10
2023-08-15T04:29:04.469Z,41.18
2023-08-15T04:29:59.807Z,41.26
2023-08-15T04:30:55.160Z,41.68
2023-08-15T04:31:50.407Z,41.35
2023-08-15T04:32:45.802Z,41.06
2023-08-15T04:33:40.934Z,40.58
2023-08-15T04:34:36.313Z,40.82
2023-08-15T04:35:31.631Z,41.43
2023-08-15T04:36:27.121Z,41.31
2023-08-15T04:37:22.655Z,41.02
2023-08-15T04:38:17.590Z,40.98
2023-08-15T04:39:12.917Z,40.94
2023-08-15T04:40:08.319Z,40.86
2023-08-15T04:41:03.458Z,41.18
2023-08-15T04:41:58.820Z,41.26
2023-08-15T04:42:54.130Z,40.94
2023-08-15T04:43:49.466Z,40.74
2023-08-15T04:44:44.790Z,40.78
2023-08-15T04:45:40.342Z,41.35
2023-08-15T04:46:35.520Z,41.39
2023-08-15T04:47:30.815Z,41.39
2023-08-15T04:48:25.964Z,41.76
2023-08-15T04:49:21.343Z,41.80
2023-08-15T04:50:16.679Z,41.97
2023-08-15T04:51:12.028Z,42.40
2023-08-15T04:52:07.237Z,42.44
2023-08-15T04:53:02.597Z,42.44
2023-08-15T04:53:57.901Z,42.70
2023-08-15T04:54:53.312Z,42.92
2023-08-15T04:55:48.681Z,43.32
2023-08-15T04:56:44.254Z,43.28
2023-08-15T04:57:39.240Z,43.28
2023-08-15T04:58:34.376Z,43.19
2023-08-15T04:59:29.344Z,43.82
2023-08-15T05:00:24.666Z,44.47
2023-08-15T05:01:19.547Z,44.66
2023-08-15T05:02:14.539Z,45.10
2023-08-15T05:03:09.541Z,45.29
2023-08-15T05:04:04.823Z,45.79
2023-08-15T05:04:59.837Z,46.97
2023-08-15T05:05:55.092Z,47.51
2023-08-15T05:06:49.960Z,47.70
2023-08-15T05:07:45.019Z,47.70
2023-08-15T05:08:39.947Z,47.64
2023-08-15T05:09:34.986Z,47.40
2023-08-15T05:10:31.428Z,47.53
2023-08-15T05:11:25.343Z,48.05
2023-08-15T05:12:20.305Z,48.70
2023-08-15T05:13:15.430Z,49.16
2023-08-15T05:14:10.474Z,49.22
2023-08-15T05:15:05.593Z,49.36
2023-08-15T05:16:00.696Z,49.63
2023-08-15T05:16:55.745Z,50.04
2023-08-15T05:17:51.308Z,50.28
2023-08-15T05:18:46.649Z,50.65
2023-08-15T05:19:42.090Z,50.62
2023-08-15T05:20:37.855Z,50.65
2023-08-15T05:21:32.944Z,50.81
2023-08-15T05:22:28.195Z,50.84
2023-08-15T05:23:23.689Z,50.77
2023-08-15T05:24:19.108Z,50.68
2023-08-15T05:25:14.756Z,50.71
2023-08-15T05:26:09.945Z,50.50
2023-08-15T05:27:09.459Z,50.07
2023-08-15T05:28:04.735Z,49.80
2023-08-15T05:29:00.327Z,49.74
2023-08-15T05:29:55.375Z,49.57
2023-08-15T05:30:50.609Z,48.99
2023-08-15T05:31:45.556Z,48.84
2023-08-15T05:32:40.664Z,48.81
2023-08-15T05:33:35.678Z,49.16
2023-08-15T05:34:30.733Z,49.42
2023-08-15T05:35:25.762Z,49.92
2023-08-15T05:36:20.835Z,50.13
2023-08-15T05:37:15.863Z,49.74
2023-08-15T05:38:10.909Z,49.98
2023-08-15T05:39:05.948Z,50.77
2023-08-15T05:40:03.476Z,51.02
2023-08-15T05:40:56.055Z,51.30
2023-08-15T05:41:51.103Z,51.24
2023-08-15T05:42:46.408Z,51.30
2023-08-15T05:43:41.767Z,50.65
2023-08-15T05:44:37.173Z,49.66
2023-08-15T05:45:32.666Z,48.78
2023-08-15T05:46:27.993Z,48.61
2023-08-15T05:47:23.635Z,48.67
2023-08-15T05:48:18.845Z,48.31
2023-08-15T05:49:14.191Z,47.40
2023-08-15T05:50:09.593Z,46.56
2023-08-15T05:51:05.253Z,45.34
2023-08-15T05:52:00.409Z,44.52
2023-08-15T05:52:55.868Z,43.64
2023-08-15T05:53:50.897Z,42.66
2023-08-15T05:54:46.085Z,42.14
2023-08-15T05:55:41.415Z,41.80
2023-08-15T05:56:36.380Z,41.55
2023-08-15T05:57:31.412Z,40.94
2023-08-15T05:58:26.556Z,40.47
2023-08-15T05:59:21.438Z,39.73
2023-08-15T06:00:16.521Z,38.74
2023-08-15T06:01:11.608Z,38.38
2023-08-15T06:02:07.310Z,37.49
2023-08-15T06:03:02.420Z,36.76
2023-08-15T06:03:57.450Z,35.54
2023-08-15T06:04:52.368Z,34.54
2023-08-15T06:05:47.626Z,33.01
2023-08-15T06:06:42.500Z,31.95
2023-08-15T06:07:37.589Z,30.93
2023-08-15T06:08:32.720Z,29.81
2023-08-15T06:09:27.780Z,29.20
2023-08-15T06:10:22.993Z,28.33
2023-08-15T06:11:17.926Z,28.10
2023-08-15T06:12:12.936Z,27.75
2023-08-15T06:13:08.120Z,27.84
2023-08-15T06:14:03.432Z,27.75
2023-08-15T06:14:58.885Z,27.88
2023-08-15T06:15:54.350Z,27.93
2023-08-15T06:16:49.647Z,28.16
2023-08-15T06:17:44.981Z,28.37
2023-08-15T06:18:40.342Z,28.47
2023-08-15T06:19:35.637Z,28.76
2023-08-15T06:20:31.235Z,28.92
2023-08-15T06:21:26.563Z,28.64
2023-08-15T06:22:21.888Z,28.58
2023-08-15T06:23:17.278Z,28.37
2023-08-15T06:24:12.684Z,28.39
2023-08-15T06:25:08.131Z,28.35
2023-08-15T06:26:03.478Z,28.41
2023-08-15T06:26:58.530Z,28.29
2023-08-15T06:27:53.581Z,28.50
2023-08-15T06:28:48.644Z,29.10
2023-08-15T06:29:45.469Z,29.41
2023-08-15T06:30:40.490Z,29.62
2023-08-15T06:31:35.868Z,29.62
2023-08-15T06:32:30.792Z,29.49
2023-08-15T06:33:25.875Z,29.31
2023-08-15T06:34:20.907Z,29.26
2023-08-15T06:35:15.975Z,29.39
2023-08-15T06:36:11.036Z,29.62
2023-08-15T06:37:06.400Z,29.53
2023-08-15T06:38:01.411Z,29.91
2023-08-15T06:38:56.502Z,29.98
2023-08-15T06:39:51.476Z,29.35
2023-08-15T06:40:46.631Z,29.31
2023-08-15T06:41:41.675Z,30.04
2023-08-15T06:42:37.369Z,30.66
2023-08-15T06:43:32.263Z,31.05
2023-08-15T06:44:27.709Z,31.14
2023-08-15T06:45:22.843Z,30.82
2023-08-15T06:46:18.207Z,30.66
2023-08-15T06:47:13.561Z,30.66
2023-08-15T06:48:08.959Z,30.44
2023-08-15T06:49:04.165Z,30.59
2023-08-15T06:49:59.582Z,30.89
2023-08-15T06:50:54.909Z,31.05
2023-08-15T06:51:50.381Z,31.40
2023-08-15T06:52:45.852Z,31.68
2023-08-15T06:53:41.075Z,31.52
2023-08-15T06:54:36.392Z,31.33
2023-08-15T06:55:31.975Z,31.28
2023-08-15T06:56:27.000Z,31.12
2023-08-15T06:57:22.276Z,30.71
2023-08-15T06:58:17.169Z,30.37
2023-08-15T06:59:12.258Z,30.28
2023-08-15T07:00:07.289Z,30.22
2023-08-15T07:01:02.577Z,30.55
2023-08-15T07:01:57.406Z,30.75
2023-08-15T07:02:52.564Z,30.24
2023-08-15T07:03:47.601Z,29.85
2023-08-15T07:04:42.662Z,29.81
2023-08-15T07:05:37.679Z,29.85
2023-08-15T07:06:32.730Z,30.42
2023-08-15T07:07:27.771Z,31.09
2023-08-15T07:08:22.888Z,31.21
2023-08-15T07:09:18.485Z,31.31
2023-08-15T07:10:13.932Z,30.71
2023-08-15T07:11:09.211Z,30.22
2023-08-15T07:12:04.725Z,29.81
2023-08-15T07:13:00.154Z,29.31
2023-08-15T07:13:55.522Z,28.64
2023-08-15T07:14:50.923Z,28.27
2023-08-15T07:15:46.291Z,28.25
2023-08-15T07:16:41.826Z,28.54
2023-08-15T07:17:37.160Z,29.35
2023-08-15T07:18:32.694Z,30.48
2023-08-15T07:19:27.987Z,31.17
2023-08-15T07:20:23.318Z,31.78
2023-08-15T07:21:18.947Z,31.98
2023-08-15T07:22:14.333Z,32.00
2023-08-15T07:23:09.941Z,31.78
2023-08-15T07:24:05.295Z,32.03
2023-08-15T07:25:00.733Z,33.25
2023-08-15T07:25:55.728Z,33.84
2023-08-15T07:26:50.834Z,35.42
2023-08-15T07:27:45.929Z,36.89
2023-08-15T07:28:41.099Z,38.67
2023-08-15T07:29:36.083Z,40.70
2023-08-15T07:30:31.131Z,41.93
2023-08-15T07:31:26.356Z,43.19
2023-08-15T07:32:24.399Z,43.77
2023-08-15T07:33:18.684Z,44.10
2023-08-15T07:34:13.935Z,43.14
2023-08-15T07:35:08.811Z,43.55
2023-08-15T07:36:03.893Z,43.55
2023-08-15T07:36:58.981Z,42.96
2023-08-15T07:37:54.250Z,41.76
2023-08-15T07:38:49.396Z,42.06
2023-08-15T07:39:44.418Z,41.89
2023-08-15T07:40:39.916Z,42.57
2023-08-15T07:41:36.533Z,41.93
2023-08-15T07:42:32.013Z,40.47
2023-08-15T07:43:27.425Z,40.19
2023-08-15T07:44:22.803Z,39.85
2023-08-15T07:45:18.245Z,40.78
2023-08-15T07:46:13.614Z,41.39
2023-08-15T07:47:09.131Z,41.68
2023-08-15T07:48:04.520Z,42.18
2023-08-15T07:49:01.062Z,42.18
2023-08-15T07:49:54.640Z,42.01
2023-08-15T07:50:49.926Z,43.01
2023-08-15T07:51:44.972Z,43.73
2023-08-15T07:52:40.019Z,44.19
2023-08-15T07:53:35.302Z,43.64
2023-08-15T07:54:30.150Z,43.59
2023-08-15T07:55:29.332Z,43.50
2023-08-15T07:56:22.708Z,43.77
2023-08-15T07:57:17.659Z,44.24
2023-08-15T07:58:12.731Z,44.52
2023-08-15T07:59:07.810Z,44.43
2023-08-15T08:00:03.062Z,44.81
2023-08-15T08:00:58.090Z,45.49
2023-08-15T08:01:53.281Z,46.19
2023-08-15T08:02:48.499Z,45.34
2023-08-15T08:03:44.199Z,46.45
2023-08-15T08:04:39.578Z,46.30
2023-08-15T08:05:35.029Z,46.09
2023-08-15T08:07:25.874Z,45.49
2023-08-15T08:08:21.250Z,45.54
2023-08-15T08:09:16.946Z,45.10
2023-08-15T08:10:12.157Z,44.62
2023-08-15T08:11:07.558Z,44.14
2023-08-15T08:12:02.905Z,44.24
2023-08-15T08:12:58.320Z,44.19
2023-08-15T08:13:53.581Z,43.82
2023-08-15T08:14:57.205Z,43.55
2023-08-15T08:15:44.802Z,43.50
2023-08-15T08:16:38.847Z,43.96
2023-08-15T08:17:33.921Z,44.14
2023-08-15T08:18:33.192Z,45.29
2023-08-15T08:19:28.157Z,45.19
2023-08-15T08:20:23.180Z,45.59
2023-08-15T08:21:18.146Z,45.59
2023-08-15T08:22:13.239Z,44.71
2023-08-15T08:23:08.206Z,44.10
2023-08-15T08:24:03.254Z,43.73
2023-08-15T08:24:58.228Z,42.92
2023-08-15T08:25:53.344Z,43.01
2023-08-15T08:26:48.437Z,43.73
2023-08-15T08:27:43.529Z,44.33
2023-08-15T08:28:38.551Z,44.71
2023-08-15T08:29:34.077Z,44.71
2023-08-15T08:30:30.793Z,44.86
2023-08-15T08:31:24.917Z,45.49
2023-08-15T08:32:20.926Z,45.79
2023-08-15T08:33:16.148Z,45.49
2023-08-15T08:34:11.600Z,45.44
2023-08-15T08:35:07.081Z,45.49
2023-08-15T08:36:02.672Z,45.19
2023-08-15T08:36:57.961Z,45.29
2023-08-15T08:37:53.575Z,45.69
2023-08-15T08:38:48.866Z,46.61
2023-08-15T08:39:44.267Z,47.86
2023-08-15T08:40:39.745Z,48.96
2023-08-15T08:41:35.166Z,50.25
2023-08-15T08:42:30.609Z,49.66
2023-08-15T08:43:26.018Z,48.31
2023-08-15T08:44:21.788Z,48.53
2023-08-15T08:45:16.778Z,48.67
2023-08-15T08:46:11.884Z,47.48
2023-08-15T08:47:06.909Z,47.56
2023-08-15T08:48:02.177Z,49.51
2023-08-15T08:48:57.075Z,53.85
2023-08-15T08:49:52.254Z,57.77
2023-08-15T08:50:47.287Z,60.93
2023-08-15T08:51:42.973Z,63.63
2023-08-15T08:52:38.396Z,64.02
2023-08-15T08:53:33.804Z,64.02
2023-08-15T08:54:47.101Z,63.63
2023-08-15T08:55:26.265Z,64.07
2023-08-15T08:56:20.817Z,64.02
2023-08-15T08:57:16.415Z,63.00
2023-08-15T08:58:11.712Z,61.93
2023-08-15T08:59:07.666Z,60.98
2023-08-15T09:00:03.179Z,61.93
2023-08-15T09:00:58.615Z,62.39
2023-08-15T09:01:54.800Z,62.21
2023-08-15T09:02:50.379Z,60.36
2023-08-15T09:03:46.230Z,59.33
2023-08-15T09:04:41.761Z,59.58
2023-08-15T09:05:37.142Z,59.63
2023-08-15T09:06:32.965Z,59.16
2023-08-15T09:07:28.345Z,59.37
2023-08-15T09:08:24.278Z,60.06
2023-08-15T09:09:19.549Z,60.36
2023-08-15T09:10:14.982Z,60.27
2023-08-15T09:11:10.661Z,60.54
2023-08-15T09:12:06.237Z,60.58
2023-08-15T09:13:01.713Z,61.07
2023-08-15T09:13:58.065Z,61.84
2023-08-15T09:14:53.551Z,62.16
2023-08-15T09:15:49.377Z,62.11
2023-08-15T09:16:44.809Z,61.84
2023-08-15T09:17:40.290Z,61.07
2023-08-15T09:18:35.932Z,62.81
2023-08-15T09:19:31.337Z,65.43
2023-08-15T09:20:27.365Z,65.94
2023-08-15T09:21:22.670Z,65.94
2023-08-15T09:22:18.074Z,63.82
2023-08-15T09:23:13.852Z,63.97
2023-08-15T09:24:09.317Z,62.49
2023-08-15T09:25:04.875Z,61.84
2023-08-15T09:26:00.988Z,61.74
2023-08-15T09:26:56.341Z,61.88
2023-08-15T09:27:52.237Z,61.88
2023-08-15T09:28:47.682Z,62.72
2023-08-15T09:29:43.203Z,67.06
2023-08-15T09:30:39.190Z,69.28
2023-08-15T09:31:34.508Z,67.71
2023-08-15T09:32:30.314Z,67.49
2023-08-15T09:33:25.661Z,67.43
2023-08-15T09:34:21.048Z,67.76
2023-08-15T09:35:16.839Z,65.12
2023-08-15T09:36:12.219Z,62.86
2023-08-15T09:37:07.769Z,64.32
2023-08-15T09:38:03.884Z,62.81
2023-08-15T09:38:59.447Z,73.23
2023-08-15T09:39:55.301Z,92.78
2023-08-15T09:40:50.783Z,110.00
2023-08-15T09:41:46.263Z,111.62
2023-08-15T09:42:42.064Z,101.82
2023-08-15T09:43:37.495Z,91.76
2023-08-15T09:44:33.366Z,87.16
2023-08-15T09:45:28.698Z,84.00
2023-08-15T09:46:24.233Z,80.98
2023-08-15T09:47:20.042Z,78.18
2023-08-15T09:48:15.215Z,71.60
2023-08-15T09:49:10.636Z,69.17
2023-08-15T09:50:06.930Z,66.84
2023-08-15T09:51:02.353Z,72.41
2023-08-15T09:51:58.169Z,73.62
2023-08-15T09:52:53.584Z,78.10
2023-08-15T09:53:49.160Z,81.86
2023-08-15T09:54:44.607Z,86.53
2023-08-15T09:55:40.056Z,77.96
2023-08-15T09:56:36.295Z,70.57
2023-08-15T09:57:31.749Z,63.97
2023-08-15T09:58:27.615Z,58.13
2023-08-15T09:59:23.008Z,58.38
2023-08-15T10:00:19.023Z,60.80
2023-08-15T10:01:14.516Z,62.21
2023-08-15T10:02:09.890Z,61.93
2023-08-15T10:03:05.730Z,57.37
2023-08-15T10:05:24.301Z,64.92
2023-08-15T10:06:19.551Z,66.79
2023-08-15T10:07:15.012Z,73.49
2023-08-15T10:08:10.448Z,76.25
2023-08-15T10:09:06.026Z,95.19
2023-08-15T10:10:01.660Z,106.49
2023-08-15T10:10:57.167Z,105.15
2023-08-15T10:11:52.631Z,112.37
2023-08-15T10:12:48.006Z,131.29
2023-08-15T10:13:43.473Z,151.29
2023-08-15T10:14:38.861Z,156.99
2023-08-15T10:15:34.369Z,157.88
2023-08-15T10:16:29.803Z,138.60
2023-08-15T10:17:25.694Z,149.13
2023-08-15T10:18:20.909Z,178.29
2023-08-15T10:19:16.247Z,197.94
2023-08-15T10:20:11.995Z,190.91
2023-08-15T10:21:07.245Z,191.58
2023-08-15T10:22:02.759Z,180.02
2023-08-15T10:22:58.186Z,156.10
2023-08-15T10:23:53.693Z,136.45
2023-08-15T10:24:49.153Z,124.44
2023-08-15T10:25:44.547Z,122.34
2023-08-15T10:26:39.759Z,129.56
2023-08-15T10:27:35.123Z,155.38
2023-08-15T10:28:30.570Z,166.71
2023-08-15T10:29:26.347Z,150.34
2023-08-15T10:30:21.572Z,131.29
2023-08-15T10:31:17.251Z,136.67
2023-08-15T10:32:12.756Z,167.54
2023-08-15T10:33:08.270Z,180.21
2023-08-15T10:34:03.729Z,148.86
2023-08-15T10:34:59.216Z,123.06
2023-08-15T10:35:54.571Z,164.73
2023-08-15T10:36:49.945Z,190.25
2023-08-15T10:37:45.437Z,197.35
2023-08-15T10:38:40.988Z,177.15
2023-08-15T10:39:36.473Z,163.76
2023-08-15T10:40:32.147Z,157.73
2023-08-15T10:41:27.496Z,157.28
2023-08-15T10:42:23.049Z,160.61
2023-08-15T10:43:18.322Z,172.39
2023-08-15T10:44:13.820Z,189.92
2023-08-15T10:45:09.305Z,180.99
2023-08-15T10:46:05.084Z,168.22
2023-08-15T10:47:00.534Z,154.51
2023-08-15T10:47:56.119Z,136.22
2023-08-15T10:49:02.770Z,128.86
2023-08-15T10:49:48.082Z,124.07
2023-08-15T10:50:42.485Z,146.77
2023-08-15T10:51:38.143Z,153.38
2023-08-15T10:52:33.617Z,163.60
2023-08-15T10:53:29.015Z,190.58
2023-08-15T10:54:24.394Z,219.82
2023-08-15T10:55:19.855Z,239.91
2023-08-15T10:56:15.324Z,275.58
2023-08-15T10:57:10.768Z,291.23
2023-08-15T10:58:06.217Z,301.95
2023-08-15T10:59:01.661Z,286.90
2023-08-15T10:59:57.040Z,283.68
2023-08-15T11:00:52.537Z,296.23
2023-08-15T11:01:48.391Z,302.23
2023-08-15T11:02:43.646Z,275.58
2023-08-15T11:03:38.988Z,227.91
2023-08-15T11:04:34.387Z,192.60
2023-08-15T11:05:29.849Z,182.18
2023-08-15T11:06:25.492Z,201.71
2023-08-15T11:07:20.958Z,202.84
2023-08-15T11:08:16.285Z,171.68
2023-08-15T11:09:11.869Z,199.26
2023-08-15T11:10:07.440Z,238.69
2023-08-15T11:11:02.957Z,269.02
2023-08-15T11:11:58.524Z,263.83
2023-08-15T11:12:53.942Z,280.29
2023-08-15T11:13:49.344Z,269.69
2023-08-15T11:14:44.694Z,257.82
2023-08-15T11:15:40.244Z,225.56
2023-08-15T11:16:35.988Z,224.33
2023-08-15T11:17:31.258Z,230.31
2023-08-15T11:18:26.631Z,187.75
2023-08-15T11:19:22.046Z,148.86
2023-08-15T11:20:17.399Z,128.96
2023-08-15T11:21:13.065Z,116.05
2023-08-15T11:22:08.514Z,107.87
2023-08-15T11:23:03.867Z,104.95
2023-08-15T11:23:59.366Z,96.51
2023-08-15T11:24:54.806Z,95.68
2023-08-15T11:25:50.074Z,95.19
2023-08-15T11:26:45.755Z,96.74
2023-08-15T11:27:40.866Z,104.30
2023-08-15T11:28:36.410Z,110.08
2023-08-15T11:29:31.783Z,101.26
2023-08-15T11:30:27.268Z,80.59
2023-08-15T11:31:23.518Z,70.69
2023-08-15T11:32:18.072Z,73.49
2023-08-15T11:33:13.333Z,78.91
2023-08-15T11:34:08.933Z,81.30
2023-08-15T11:35:04.241Z,83.08
2023-08-15T11:35:59.719Z,100.59
2023-08-15T11:36:55.088Z,113.99
2023-08-15T11:37:50.539Z,100.41
2023-08-15T11:38:45.844Z,100.95
2023-08-15T11:39:41.274Z,115.09
2023-08-15T11:40:36.613Z,120.84
2023-08-15T11:41:34.915Z,124.16
2023-08-15T11:42:27.574Z,124.44
2023-08-15T11:43:22.990Z,125.00
2023-08-15T11:44:18.336Z,132.76
2023-08-15T11:45:13.734Z,115.01
2023-08-15T11:46:09.159Z,95.52
2023-08-15T11:47:04.585Z,101.26
2023-08-15T11:47:59.920Z,104.82
2023-08-15T11:48:55.354Z,96.85
2023-08-15T11:49:50.699Z,82.83
2023-08-15T11:50:46.159Z,76.81
2023-08-15T11:51:41.463Z,72.53
2023-08-15T11:52:36.867Z,70.99
2023-08-15T11:53:32.200Z,74.41